N831B KONT-KEMT
Flight info
| Callsign | N831B |
|---|---|
| Flight time | 0h 22m |
| Altitude | 4000 |
| Route | PDZ |
| Aircraft | C172/L-VGD/A |
Departure
| Time | 2026-04-21 01:31 |
|---|---|
| Airport | Ontario International Airport (KONT) |
Arrival
| Time | 2026-04-21 01:54 |
|---|---|
| Airport | San Gabriel Valley Airport (KEMT) |
| Time | Latitude | Longitude | Altitude | Speed | Heading |
|---|---|---|---|---|---|
| 2026-04-21 01:09 | 34.05321 | -117.61629 | 925 ft | 0 kts | 46° |
| 2026-04-21 01:23 | 34.05364 | -117.61530 | 927 ft | 18 kts | 24° |
| 2026-04-21 01:23 | 34.05394 | -117.61419 | 927 ft | 19 kts | 101° |
| 2026-04-21 01:24 | 34.05385 | -117.61216 | 924 ft | 28 kts | 90° |
| 2026-04-21 01:24 | 34.05386 | -117.60952 | 921 ft | 34 kts | 87° |
| 2026-04-21 01:24 | 34.05383 | -117.60658 | 921 ft | 36 kts | 86° |
| 2026-04-21 01:24 | 34.05384 | -117.60333 | 918 ft | 40 kts | 86° |
| 2026-04-21 01:25 | 34.05383 | -117.59985 | 915 ft | 42 kts | 89° |
| 2026-04-21 01:25 | 34.05385 | -117.59624 | 915 ft | 43 kts | 90° |
| 2026-04-21 01:25 | 34.05384 | -117.59251 | 915 ft | 44 kts | 89° |
| 2026-04-21 01:25 | 34.05385 | -117.58903 | 915 ft | 36 kts | 90° |
| 2026-04-21 01:26 | 34.05384 | -117.58636 | 915 ft | 27 kts | 90° |
| 2026-04-21 01:26 | 34.05386 | -117.58440 | 915 ft | 19 kts | 90° |
| 2026-04-21 01:26 | 34.05385 | -117.58302 | 916 ft | 12 kts | 87° |
| 2026-04-21 01:26 | 34.05391 | -117.58274 | 916 ft | 0 kts | 61° |
| 2026-04-21 01:30 | 34.05406 | -117.58256 | 917 ft | 11 kts | 25° |
| 2026-04-21 01:30 | 34.05504 | -117.58281 | 923 ft | 17 kts | 276° |
| 2026-04-21 01:30 | 34.05505 | -117.58547 | 919 ft | 52 kts | 271° |
| 2026-04-21 01:30 | 34.05497 | -117.59164 | 984 ft | 82 kts | 271° |
| 2026-04-21 01:31 | 34.05531 | -117.59817 | 1213 ft | 82 kts | 274° |
| 2026-04-21 01:31 | 34.05575 | -117.60509 | 1469 ft | 78 kts | 272° |
| 2026-04-21 01:31 | 34.05429 | -117.61114 | 1685 ft | 76 kts | 225° |
| 2026-04-21 01:31 | 34.04963 | -117.61329 | 1890 ft | 77 kts | 175° |
| 2026-04-21 01:32 | 34.04581 | -117.60990 | 2109 ft | 74 kts | 119° |
| 2026-04-21 01:32 | 34.04270 | -117.60448 | 2288 ft | 77 kts | 137° |
| 2026-04-21 01:32 | 34.03861 | -117.60035 | 2476 ft | 79 kts | 132° |
| 2026-04-21 01:32 | 34.03514 | -117.59532 | 2697 ft | 76 kts | 133° |
| 2026-04-21 01:33 | 34.03073 | -117.59129 | 2871 ft | 79 kts | 147° |
| 2026-04-21 01:33 | 34.02632 | -117.58765 | 3063 ft | 79 kts | 142° |
| 2026-04-21 01:33 | 34.02159 | -117.58408 | 3234 ft | 81 kts | 146° |
| 2026-04-21 01:33 | 34.01664 | -117.58108 | 3449 ft | 77 kts | 157° |
| 2026-04-21 01:34 | 34.01185 | -117.57791 | 3609 ft | 81 kts | 152° |
| 2026-04-21 01:34 | 34.00687 | -117.57505 | 3804 ft | 79 kts | 153° |
| 2026-04-21 01:34 | 34.00190 | -117.57207 | 3989 ft | 78 kts | 150° |
| 2026-04-21 01:34 | 33.99708 | -117.56827 | 4053 ft | 94 kts | 146° |
| 2026-04-21 01:35 | 33.99165 | -117.56388 | 4210 ft | 95 kts | 147° |
| 2026-04-21 01:35 | 33.98490 | -117.56026 | 4132 ft | 117 kts | 160° |
| 2026-04-21 01:35 | 33.97710 | -117.55728 | 4185 ft | 119 kts | 165° |
| 2026-04-21 01:35 | 33.96875 | -117.55491 | 4180 ft | 124 kts | 167° |
| 2026-04-21 01:36 | 33.96077 | -117.55222 | 4277 ft | 121 kts | 154° |
| 2026-04-21 01:36 | 33.95307 | -117.54724 | 4291 ft | 124 kts | 149° |
| 2026-04-21 01:36 | 33.94554 | -117.54209 | 4264 ft | 129 kts | 153° |
| 2026-04-21 01:36 | 33.93733 | -117.53780 | 4215 ft | 134 kts | 163° |
| 2026-04-21 01:37 | 33.92846 | -117.53538 | 4291 ft | 127 kts | 157° |
| 2026-04-21 01:37 | 33.92061 | -117.53025 | 4317 ft | 126 kts | 151° |
| 2026-04-21 01:37 | 33.91253 | -117.52661 | 4275 ft | 133 kts | 179° |
| 2026-04-21 01:37 | 33.90498 | -117.53236 | 4207 ft | 133 kts | 246° |
| 2026-04-21 01:38 | 33.90667 | -117.54258 | 4163 ft | 135 kts | 320° |
| 2026-04-21 01:38 | 33.91492 | -117.54590 | 4352 ft | 120 kts | 347° |
| 2026-04-21 01:38 | 33.92373 | -117.54776 | 4149 ft | 138 kts | 351° |
| 2026-04-21 01:38 | 33.93304 | -117.54967 | 4158 ft | 133 kts | 330° |
| 2026-04-21 01:39 | 33.93767 | -117.55914 | 4200 ft | 125 kts | 290° |
| 2026-04-21 01:39 | 33.94130 | -117.56853 | 4173 ft | 131 kts | 297° |
| 2026-04-21 01:39 | 33.94549 | -117.57793 | 4319 ft | 120 kts | 296° |
| 2026-04-21 01:39 | 33.94986 | -117.58675 | 4319 ft | 126 kts | 301° |
| 2026-04-21 01:40 | 33.95443 | -117.59580 | 4353 ft | 125 kts | 301° |
| 2026-04-21 01:40 | 33.95888 | -117.60462 | 4415 ft | 124 kts | 301° |
| 2026-04-21 01:40 | 33.96335 | -117.61365 | 4433 ft | 126 kts | 300° |
| 2026-04-21 01:40 | 33.96783 | -117.62264 | 4485 ft | 125 kts | 301° |
| 2026-04-21 01:41 | 33.97361 | -117.63071 | 4487 ft | 127 kts | 314° |
| 2026-04-21 01:41 | 33.98019 | -117.63756 | 4520 ft | 125 kts | 318° |
| 2026-04-21 01:41 | 33.98640 | -117.64499 | 4495 ft | 126 kts | 312° |
| 2026-04-21 01:41 | 33.99243 | -117.65271 | 4467 ft | 126 kts | 313° |
| 2026-04-21 01:42 | 33.99833 | -117.66042 | 4464 ft | 125 kts | 313° |
| 2026-04-21 01:42 | 34.00437 | -117.66798 | 4434 ft | 126 kts | 315° |
| 2026-04-21 01:42 | 34.01089 | -117.67504 | 4420 ft | 125 kts | 321° |
| 2026-04-21 01:42 | 34.01803 | -117.68097 | 4396 ft | 126 kts | 330° |
| 2026-04-21 01:43 | 34.02405 | -117.68843 | 4326 ft | 128 kts | 298° |
| 2026-04-21 01:43 | 34.02871 | -117.69723 | 4354 ft | 124 kts | 306° |
| 2026-04-21 01:43 | 34.03354 | -117.70592 | 4331 ft | 125 kts | 307° |
| 2026-04-21 01:43 | 34.03871 | -117.71445 | 4307 ft | 126 kts | 300° |
| 2026-04-21 01:44 | 34.04406 | -117.72279 | 4258 ft | 127 kts | 305° |
| 2026-04-21 01:44 | 34.04911 | -117.73150 | 4280 ft | 124 kts | 305° |
| 2026-04-21 01:44 | 34.05423 | -117.73995 | 4252 ft | 126 kts | 307° |
| 2026-04-21 01:44 | 34.05983 | -117.74806 | 4235 ft | 125 kts | 312° |
| 2026-04-21 01:45 | 34.06686 | -117.75442 | 4141 ft | 131 kts | 321° |
| 2026-04-21 01:45 | 34.07173 | -117.76341 | 4039 ft | 133 kts | 288° |
| 2026-04-21 01:45 | 34.07494 | -117.77336 | 4151 ft | 121 kts | 293° |
| 2026-04-21 01:45 | 34.07853 | -117.78276 | 4145 ft | 122 kts | 296° |
| 2026-04-21 01:46 | 34.08148 | -117.79232 | 3999 ft | 132 kts | 266° |
| 2026-04-21 01:46 | 34.08265 | -117.80290 | 4064 ft | 124 kts | 291° |
| 2026-04-21 01:46 | 34.08244 | -117.81239 | 4208 ft | 112 kts | 252° |
| 2026-04-21 01:46 | 34.08030 | -117.82206 | 4067 ft | 127 kts | 261° |
| 2026-04-21 01:47 | 34.08028 | -117.83198 | 3962 ft | 119 kts | 277° |
| 2026-04-21 01:47 | 34.08240 | -117.84167 | 3757 ft | 120 kts | 294° |
| 2026-04-21 01:47 | 34.08725 | -117.84972 | 3565 ft | 120 kts | 320° |
| 2026-04-21 01:47 | 34.09076 | -117.85732 | 3436 ft | 112 kts | 261° |
| 2026-04-21 01:48 | 34.08636 | -117.86459 | 3288 ft | 114 kts | 234° |
| 2026-04-21 01:48 | 34.08210 | -117.87315 | 2965 ft | 125 kts | 257° |
| 2026-04-21 01:48 | 34.08272 | -117.88263 | 2965 ft | 108 kts | 273° |
| 2026-04-21 01:48 | 34.08306 | -117.89226 | 2672 ft | 123 kts | 272° |
| 2026-04-21 01:49 | 34.08370 | -117.90218 | 2603 ft | 112 kts | 275° |
| 2026-04-21 01:49 | 34.08466 | -117.91161 | 2402 ft | 118 kts | 277° |
| 2026-04-21 01:49 | 34.08566 | -117.92146 | 2238 ft | 116 kts | 275° |
| 2026-04-21 01:49 | 34.08617 | -117.93160 | 1973 ft | 121 kts | 270° |
| 2026-04-21 01:50 | 34.08622 | -117.94163 | 1801 ft | 120 kts | 274° |
| 2026-04-21 01:50 | 34.08683 | -117.95197 | 1500 ft | 127 kts | 268° |
| 2026-04-21 01:50 | 34.08676 | -117.96204 | 1286 ft | 119 kts | 271° |
| 2026-04-21 01:50 | 34.08722 | -117.97179 | 1075 ft | 106 kts | 275° |
| 2026-04-21 01:51 | 34.08801 | -117.97952 | 1048 ft | 85 kts | 276° |
| 2026-04-21 01:51 | 34.09052 | -117.98543 | 986 ft | 80 kts | 306° |
| 2026-04-21 01:51 | 34.09393 | -117.99055 | 992 ft | 78 kts | 311° |
| 2026-04-21 01:51 | 34.09793 | -117.99494 | 1003 ft | 70 kts | 323° |
| 2026-04-21 01:52 | 34.10195 | -117.99825 | 1026 ft | 70 kts | 324° |
| 2026-04-21 01:52 | 34.10959 | -118.00723 | 1021 ft | 73 kts | 309° |
| 2026-04-21 01:52 | 34.11034 | -118.01316 | 992 ft | 80 kts | 245° |
| 2026-04-21 01:53 | 34.10713 | -118.01897 | 802 ft | 79 kts | 233° |
| 2026-04-21 01:53 | 34.10377 | -118.02374 | 719 ft | 72 kts | 227° |
| 2026-04-21 01:53 | 34.09969 | -118.02727 | 619 ft | 73 kts | 206° |
| 2026-04-21 01:53 | 34.09507 | -118.02971 | 487 ft | 71 kts | 206° |
| 2026-04-21 01:54 | 34.09073 | -118.03217 | 345 ft | 66 kts | 205° |
| 2026-04-21 01:54 | 34.08738 | -118.03410 | 287 ft | 41 kts | 201° |
| 2026-04-21 01:54 | 34.08603 | -118.03475 | 286 ft | 1 kts | 197° |
| 2026-04-21 01:54 | 34.08550 | -118.03480 | 286 ft | 5 kts | 147° |
| 2026-04-21 01:55 | 34.08553 | -118.03451 | 287 ft | 3 kts | 37° |
| 2026-04-21 01:55 | 34.08557 | -118.03448 | 287 ft | 0 kts | 31° |